AirNav   Duncan Aviation - Near you to keep you flying
 
 1330 users online  

6R5 Alvin Airpark
Alvin, Texas, USA

GOING TO ALVIN?


FAA INFORMATION EFFECTIVE 14 JULY 2022

Location

FAA Identifier: 6R5
Lat/Long: 29-24-53.1000N 095-17-20.1000W
29-24.885000N 095-17.335000W
29.4147500,-95.2889167
(estimated)
Elevation: 43 ft. / 13 m (estimated)
Variation: 06E (1985)
From city: 3 miles W of ALVIN, TX
Time zone: UTC -5 (UTC -6 during Standard Time)
Zip code: 77511

Airport Operations

Airport use: Open to the public
Activation date: 09/1959
Control tower: no
ARTCC: HOUSTON CENTER
FSS: MONTGOMERY COUNTY FLIGHT SERVICE STATION
NOTAMs facility: CXO (NOTAM-D service available)
Attendance: UNATNDD
Wind indicator: yes
Segmented circle: no

Airport Communications

CTAF: 122.9
WX ASOS at LVJ (7 nm N): 118.525 (281-992-1853)
WX AWOS-3 at AXH (11 nm NW): 123.625 (281-431-6572)
WX AWOS-3 at EFD (13 nm NE): 135.575 (713-847-4430)
WX ASOS at HOU (14 nm N): PHONE 713-847-1462
WX AWOS-3PT at T41 (19 nm NE): 120.275 (281-471-2206)

Nearby radio navigation aids

VOR radial/distance  VOR name  Freq  Var
VUHr286/23.7SCHOLES VOR/DME113.0006E
MHFr247/29.4TRINITY VOR/DME113.6007E
IAHr170/32.7HUMBLE VORTAC116.6005E

Airport Services

Parking: hangars and tiedowns

Runway Information

Runway 6/24

Dimensions: 1500 x 80 ft. / 457 x 24 m
Surface: turf, in poor condition
RWY DEFINED BY MOWING. DIFFICULT TO DETERMINE RWY DIMENSIONS. RWY SFC ROUGH & UNEVEN.
RUNWAY 6  RUNWAY 24
Latitude: 29-24.873632N29-24.952375N
Longitude: 095-17.473242W095-17.205188W
Elevation: 41.0 ft.42.0 ft.
Traffic pattern: leftleft
Runway heading: 065 magnetic, 071 true245 magnetic, 251 true
Obstructions: 34 ft. pline, 55 ft. left of centerline50 ft. trees

Runway 3/21

Dimensions: 1420 x 75 ft. / 433 x 23 m
Surface: turf, in poor condition
RWY DEFINED BY MOWING. DIFFICULT TO DETERMINE RWY DIMENSIONS. RWY SFC ROUGH & UNEVEN.
RUNWAY 3  RUNWAY 21
Latitude: 29-24.794085N29-24.972068N
Longitude: 095-17.366012W095-17.191893W
Elevation: 41.0 ft.41.0 ft.
Traffic pattern: leftleft
Runway heading: 035 magnetic, 041 true215 magnetic, 221 true
Obstructions: 30 ft. trees, 35 ft. right of centerline36 ft. trees, 50 ft. left of centerline

Runway 12/30

Dimensions: 830 x 60 ft. / 253 x 18 m
Surface: turf, in poor condition
RWY DEFINED BY MOWING. DIFFICULT TO DETERMINE RWY DIMENSIONS. RWY SFC ROUGH & UNEVEN.
RUNWAY 12  RUNWAY 30
Latitude: 29-24.884553N29-24.794608N
Longitude: 095-17.478783W095-17.360790W
Elevation: 42.0 ft.41.0 ft.
Traffic pattern: leftleft
Runway heading: 125 magnetic, 131 true305 magnetic, 311 true
Obstructions: 34 ft. pline50 ft. trees, 60 ft. right of centerline

Airport Ownership and Management from official FAA records

Ownership: Privately-owned
Owner: RSNMART PROPERTIES, LLC
2102 CHERRY HILL DR
LEAGUE CITY, TX 77573
Phone (713) 208-8707
Manager: RANDY SMART
12357 CR 280
ALVIN, TX 77511
Phone (713) 208-8707

Airport Operational Statistics

Aircraft based on the field: 16
Single engine airplanes: 3
Ultralights: 13
    

Additional Remarks

RWY 03 +6 FT FENCE 40 FT SE OF CNTRLN ALG SOUTHEAST EDGE. +50 FT TREES ALG RWY 03 RIGHT OF CNTRLN.
RWY 21 +6 FT FENCE 20 FT FM THR 0B. +30 FT TREES ALONG RWY 21 LEFT OF CNTRLN.
RADIO CONTROL MODEL ACFT OPERATING AREA ADJACENT TO ARPT, NW
ALL RWYS DEFINED BY MOWING. NO MARKERS. RWY NOT MOWED.
6 FT FENCE ARND ARPT PERIMETER. ALL GATES LOCKED.
FOR CD CTC HOUSTON APCH AT 281-443-5844 TO CNL IFR CALL 281-443-5888.

Instrument Procedures

There are no published instrument procedures at 6R5.

Some nearby airports with instrument procedures:

KLVJ - Pearland Regional Airport (7 nm N)
KAXH - Houston Southwest Airport (11 nm NW)
KEFD - Ellington Airport (13 nm NE)
KHOU - William P Hobby Airport (14 nm N)
T41 - La Porte Municipal Airport (19 nm NE)
 
Loc | Ops | Rwys | IFR | FBO | Links
Com | Nav | Svcs | Stats | Notes
Area around 6R5 (Alvin Airpark)
 
Road maps at: MapQuest Bing Google
 
Aerial photo
WARNING: Photo may not be current or correct
Aerial photo of 6R5 (Alvin Airpark)
Do you have a better or more recent aerial photo of Alvin Airpark that you would like to share? If so, please send us your photo.

 
Sectional chart

 
Airport distance calculator
Flying to Alvin Airpark? Find the distance to fly.

From to 6R5

Sunrise and sunset
Times for 10-Aug-2022
 Local
(UTC-5)
 Zulu
(UTC)
Morning civil twilight06:2211:22
Sunrise06:4711:47
Sunset20:0501:05
Evening civil twilight20:3101:31

Current date and time
Zulu (UTC)  10-Aug-2022 13:21:39
Local (UTC-5)  10-Aug-2022 08:21:39
 
METAR
KLVJ 
6nm N 
101253Z AUTO 00000KT 9SM CLR 27/24 A3008 RMK AO2 SLP186 T02670244
KAXH 
11nm NW 
101255Z AUTO 00000KT 10SM CLR 26/25 A3009 RMK AO2 T02550247
KEFD 
13nm NE 
101254Z 24004KT 10SM FEW025 28/24 A3007
KHOU 
13nm N 
101253Z 26003KT 10SM FEW020 FEW150 FEW250 28/24 A3007 RMK AO2 SLP185 T02780239
KT41 
19nm NE 
101255Z AUTO 27003KT 10SM CLR 27/21 A3008 RMK AO2 T02690206
TAF
KEFD 
13nm NE 
101215Z 1012/1118 VRB06KT 9999 FEW025 QNH3000INS BECMG 1014/1015 VRB06KT 9000 -SHRA SCT035 QNH3007INS TEMPO 1015/1018 VRB10G15KT 8000 -TSRA SCT030CB BKN070 TEMPO 1116/1117 VRB10G20KT 8000 -TSRA SCT030CB BKN055 TX33/1021Z TN25/1112Z
KHOU 
13nm N 
101126Z 1012/1112 VRB04KT P6SM FEW025 FM101500 23005KT P6SM SCT030 BKN120 FM101900 11010KT P6SM VCTS SCT045CB BKN150 FM110000 15007KT P6SM SCT030 BKN250 FM110400 VRB03KT P6SM SCT040 SCT250
NOTAMs
Click for the latest NOTAMs
NOTAMs are issued by the DoD/FAA and will open in a separate window not controlled by AirNav.

 

 
 

Would you like to see your business listed on this page?

 If your business provides an interesting product or service to pilots, flight crews, aircraft, or users of the Alvin Airpark, you should consider listing it here.  To start the listing process, click on the button below
 
Add a business
 

Other Pages about Alvin Airpark

Update a link
 
Copyright © AirNav, LLC. All rights reserved. Privacy Policy  Contact